Time;durP1;ratioP1;P1;durP2;ratioP2;P2;SDS_P1;SDS_P2;PMS_P1;PMS_P2;Temp;Humidity;BMP_temperature;BMP_pressure;BME280_temperature;BME280_humidity;BME280_pressure;Samples;Min_cycle;Max_cycle;Signal;HPM_P1;HPM_P2
2023/09/14 00:01:21;;;;;;;42.67;14.07;;;;;;;13.60;61.07;100884.12;1741074;78;21370;-56
2023/09/14 00:04:27;;;;;;;29.52;12.95;;;;;;;13.58;61.12;100887.56;1723032;79;21369;-56
2023/09/14 00:07:34;;;;;;;32.03;11.95;;;;;;;13.57;61.14;100886.73;1804510;79;21829;-56
2023/09/14 00:10:41;;;;;;;24.32;12.18;;;;;;;13.54;61.14;100882.42;1758681;78;21205;-56
2023/09/14 00:13:48;;;;;;;24.18;13.25;;;;;;;13.52;61.19;100880.38;1793364;79;21345;-55
2023/09/14 00:16:55;;;;;;;25.30;12.00;;;;;;;13.52;61.20;100879.53;1758909;79;21255;-56
2023/09/14 00:20:01;;;;;;;19.48;12.07;;;;;;;13.50;61.19;100880.23;1790204;80;21867;-56
2023/09/14 00:23:07;;;;;;;21.73;12.05;;;;;;;13.48;61.21;100883.16;1797074;78;21384;-55
2023/09/14 00:26:14;;;;;;;26.00;12.35;;;;;;;13.47;61.21;100884.72;1767067;79;21242;-56
2023/09/14 00:29:19;;;;;;;25.25;12.60;;;;;;;13.43;61.15;100877.35;1770914;79;21361;-55
2023/09/14 00:32:24;;;;;;;25.95;11.95;;;;;;;13.40;61.17;100880.98;1775844;79;21737;-55
2023/09/14 00:35:31;;;;;;;19.37;11.68;;;;;;;13.36;61.22;100880.51;1762271;79;21231;-55
2023/09/14 00:38:38;;;;;;;25.40;12.37;;;;;;;13.34;61.21;100878.45;1744634;82;21342;-56
2023/09/14 00:41:44;;;;;;;16.23;10.40;;;;;;;13.34;61.29;100881.70;1772311;77;21378;-55
2023/09/14 00:44:52;;;;;;;19.17;11.80;;;;;;;13.34;61.34;100876.21;1765374;78;21350;-55
2023/09/14 00:48:02;;;;;;;20.60;10.85;;;;;;;13.33;61.29;100871.76;1787591;79;21915;-57
2023/09/14 00:51:10;;;;;;;27.27;12.28;;;;;;;13.30;61.30;100874.34;1757399;80;21244;-56
2023/09/14 00:54:16;;;;;;;19.42;11.70;;;;;;;13.27;61.30;100871.95;1741331;80;21344;-56
2023/09/14 00:57:24;;;;;;;18.30;11.25;;;;;;;13.28;61.40;100864.56;1748260;80;21374;-56
2023/09/14 01:00:31;;;;;;;18.15;10.65;;;;;;;13.26;61.37;100861.14;1786364;77;21318;-55
2023/09/14 01:03:37;;;;;;;19.65;11.75;;;;;;;13.22;61.37;100862.01;1748483;80;21543;-55
2023/09/14 01:06:43;;;;;;;24.65;10.58;;;;;;;13.19;61.36;100859.63;1798135;78;21915;-56
2023/09/14 01:09:50;;;;;;;17.27;10.82;;;;;;;13.15;61.33;100858.29;1769501;77;21383;-57
2023/09/14 01:12:59;;;;;;;19.80;12.07;;;;;;;13.14;61.29;100852.47;1789979;79;21390;-57
2023/09/14 01:16:25;;;;;;;16.67;10.70;;;;;;;13.11;61.26;100856.09;1779779;78;21382;-56
2023/09/14 01:19:50;;;;;;;15.40;9.83;;;;;;;13.07;61.29;100862.45;1802213;77;21444;-54
2023/09/14 01:23:10;;;;;;;16.20;10.82;;;;;;;13.03;61.26;100850.63;1748468;81;21371;-54
2023/09/14 01:26:16;;;;;;;17.00;10.53;;;;;;;13.01;61.37;100850.81;1804853;78;21347;-55
2023/09/14 01:29:22;;;;;;;19.37;11.63;;;;;;;13.01;61.48;100845.32;1770890;79;21911;-54
2023/09/14 01:32:28;;;;;;;19.55;11.70;;;;;;;13.02;61.47;100849.77;1763732;79;21366;-54
2023/09/14 01:35:37;;;;;;;16.73;10.72;;;;;;;13.02;61.46;100848.39;1741957;79;21240;-54
2023/09/14 01:38:42;;;;;;;20.50;11.88;;;;;;;13.00;61.39;100842.21;1790677;79;21362;-55
2023/09/14 01:41:54;;;;;;;17.05;11.03;;;;;;;12.97;61.37;100847.20;1772823;79;21441;-55
2023/09/14 01:44:57;;;;;;;15.43;10.05;;;;;;;12.94;61.41;100847.03;1788258;78;21374;-55
2023/09/14 01:48:04;;;;;;;18.15;10.48;;;;;;;12.95;61.46;100851.51;1771239;79;21393;-56
2023/09/14 01:51:10;;;;;;;16.45;9.60;;;;;;;12.97;61.55;100858.20;1800890;78;21341;-55
2023/09/14 01:54:15;;;;;;;15.98;10.13;;;;;;;13.03;61.56;100857.50;1770820;79;21860;-55
2023/09/14 01:57:20;;;;;;;16.97;10.58;;;;;;;13.05;61.53;100856.81;1721791;80;21721;-55
2023/09/14 02:00:26;;;;;;;14.23;10.13;;;;;;;13.06;61.49;100847.52;1718862;81;21252;-56
2023/09/14 02:03:32;;;;;;;16.57;11.20;;;;;;;13.09;61.50;100846.65;1749160;80;21474;-55
2023/09/14 02:06:40;;;;;;;19.02;10.82;;;;;;;13.10;61.48;100852.47;1767130;79;21247;-55
2023/09/14 02:09:46;;;;;;;19.67;11.22;;;;;;;13.11;61.48;100853.34;1784646;78;21401;-56
2023/09/14 02:12:53;;;;;;;19.45;11.05;;;;;;;13.10;61.46;100849.72;1740657;79;21363;-55
2023/09/14 02:16:00;;;;;;;14.65;10.18;;;;;;;13.09;61.48;100841.16;1786086;78;21340;-55
2023/09/14 02:19:07;;;;;;;18.45;10.85;;;;;;;13.07;61.54;100844.59;1777397;79;21467;-55
2023/09/14 02:22:14;;;;;;;16.30;9.98;;;;;;;13.05;61.51;100843.91;1777001;79;21398;-54
2023/09/14 02:25:21;;;;;;;16.82;10.32;;;;;;;13.02;61.50;100836.02;1808311;79;21437;-55
2023/09/14 02:28:27;;;;;;;19.67;11.25;;;;;;;13.00;61.46;100847.70;1788216;80;21354;-55
2023/09/14 02:31:33;;;;;;;19.65;10.60;;;;;;;12.99;61.43;100850.09;1803085;79;21381;-54
2023/09/14 02:34:41;;;;;;;15.53;10.18;;;;;;;12.97;61.49;100848.58;1760001;79;21264;-55
2023/09/14 02:37:48;;;;;;;17.82;11.30;;;;;;;12.95;61.41;100841.02;1794002;79;21360;-55
2023/09/14 02:40:53;;;;;;;14.65;10.28;;;;;;;12.90;61.43;100829.20;1793852;77;21362;-55
2023/09/14 02:44:00;;;;;;;16.48;10.25;;;;;;;12.93;61.55;100825.22;1776441;80;21354;-55
2023/09/14 02:47:06;;;;;;;19.25;10.18;;;;;;;12.97;61.73;100821.93;1804754;79;21366;-55
2023/09/14 02:50:13;;;;;;;14.98;9.43;;;;;;;13.01;61.85;100823.33;1770801;81;21741;-55
2023/09/14 02:53:20;;;;;;;15.95;9.78;;;;;;;13.03;61.79;100822.61;1803635;79;21406;-56
2023/09/14 02:56:27;;;;;;;17.40;10.03;;;;;;;13.01;61.70;100822.47;1795237;79;21338;-56
2023/09/14 02:59:33;;;;;;;15.58;10.35;;;;;;;12.96;61.64;100824.36;1744184;79;21374;-55
2023/09/14 03:02:40;;;;;;;17.62;10.95;;;;;;;12.96;61.71;100828.98;1747689;82;21204;-59
2023/09/14 03:05:48;;;;;;;16.30;9.93;;;;;;;12.94;61.70;100833.29;1732825;82;21379;-59
2023/09/14 03:08:54;;;;;;;18.17;10.98;;;;;;;12.93;61.72;100835.71;1782794;79;21434;-59
2023/09/14 03:12:02;;;;;;;18.70;10.93;;;;;;;12.94;61.82;100839.29;1801987;78;21422;-59
2023/09/14 03:15:09;;;;;;;19.77;10.90;;;;;;;12.94;61.87;100830.54;1782109;79;21430;-59
2023/09/14 03:18:15;;;;;;;14.70;9.95;;;;;;;12.93;61.80;100830.21;1769278;79;21847;-59
2023/09/14 03:21:35;;;;;;;21.33;10.70;;;;;;;12.94;61.86;100831.05;1787381;78;21366;-59
2023/09/14 03:24:42;;;;;;;12.53;9.10;;;;;;;12.94;61.86;100841.53;1804210;79;21374;-58
2023/09/14 03:27:49;;;;;;;18.57;10.53;;;;;;;12.94;61.89;100845.66;1767381;79;21394;-57
2023/09/14 03:30:55;;;;;;;22.90;10.95;;;;;;;12.94;61.90;100843.41;1732750;78;21272;-57
2023/09/14 03:34:02;;;;;;;17.65;10.68;;;;;;;12.91;61.83;100848.77;1723691;79;21646;-58
2023/09/14 03:37:08;;;;;;;19.07;10.58;;;;;;;12.90;61.86;100844.83;1734664;80;21367;-58
2023/09/14 03:40:14;;;;;;;17.60;10.23;;;;;;;12.86;61.85;100836.08;1733713;79;21358;-57
2023/09/14 03:43:21;;;;;;;21.75;9.80;;;;;;;12.84;61.89;100836.80;1764394;80;21401;-57
2023/09/14 03:46:28;;;;;;;21.17;11.63;;;;;;;12.83;61.85;100836.95;1804515;79;21441;-58
2023/09/14 03:49:35;;;;;;;25.68;12.13;;;;;;;12.79;61.89;100840.59;1777018;81;21335;-57
2023/09/14 03:52:42;;;;;;;28.35;13.60;;;;;;;12.79;61.95;100845.22;1804644;79;21391;-59
2023/09/14 03:55:48;;;;;;;22.13;13.62;;;;;;;12.80;62.04;100851.05;1748841;81;21365;-58
2023/09/14 03:58:56;;;;;;;22.67;11.80;;;;;;;12.83;62.11;100839.69;1804934;79;21322;-54
2023/09/14 04:02:03;;;;;;;24.95;11.12;;;;;;;12.82;62.04;100840.23;1777362;81;21418;-55
2023/09/14 04:05:22;;;;;;;20.65;11.08;;;;;;;12.85;62.06;100843.99;1804627;78;21966;-55
2023/09/14 04:08:29;;;;;;;22.62;12.20;;;;;;;12.88;62.08;100843.63;1804577;79;21328;-55
2023/09/14 04:11:34;;;;;;;20.65;12.25;;;;;;;12.92;62.16;100842.22;1804486;79;21335;-55
2023/09/14 04:14:44;;;;;;;23.67;12.35;;;;;;;13.01;62.21;100844.45;1804525;79;21367;-55
2023/09/14 04:17:50;;;;;;;23.77;14.05;;;;;;;13.09;62.23;100848.53;1804516;79;21395;-55
2023/09/14 04:20:58;;;;;;;38.30;13.75;;;;;;;13.18;62.33;100841.43;1804526;79;21468;-54
2023/09/14 04:24:04;;;;;;;30.60;13.78;;;;;;;13.31;62.40;100847.70;1803088;79;21398;-54
2023/09/14 04:27:10;;;;;;;25.00;12.47;;;;;;;13.43;62.47;100847.09;1774352;80;21366;-54
2023/09/14 04:30:17;;;;;;;23.50;11.85;;;;;;;13.53;62.43;100840.84;1786307;79;21914;-54
2023/09/14 04:33:23;;;;;;;20.75;12.78;;;;;;;13.65;62.44;100846.78;1783696;79;21335;-55
2023/09/14 04:36:30;;;;;;;22.73;13.18;;;;;;;13.73;62.41;100843.09;1803008;79;21358;-55
2023/09/14 04:39:35;;;;;;;27.25;13.48;;;;;;;13.78;62.32;100835.14;1792813;79;21402;-54
2023/09/14 04:42:43;;;;;;;19.23;11.20;;;;;;;13.83;62.30;100838.17;1757361;79;21899;-54
2023/09/14 04:45:52;;;;;;;17.92;10.68;;;;;;;13.86;62.22;100840.58;1756009;80;21252;-54
2023/09/14 04:48:59;;;;;;;17.73;11.12;;;;;;;13.88;62.23;100843.97;1760145;79;21777;-54
2023/09/14 04:52:04;;;;;;;25.55;10.40;;;;;;;13.91;62.20;100853.23;1707947;79;21868;-53
2023/09/14 04:55:10;;;;;;;18.55;10.70;;;;;;;13.94;62.27;100848.22;1763831;78;21223;-52
2023/09/14 04:58:17;;;;;;;26.55;10.70;;;;;;;14.01;62.34;100838.70;1796846;79;21203;-52
2023/09/14 05:01:25;;;;;;;21.48;10.30;;;;;;;14.07;62.39;100839.32;1738052;79;21240;-53
2023/09/14 05:04:32;;;;;;;25.60;11.45;;;;;;;14.13;62.36;100841.35;1719513;80;21275;-52
2023/09/14 05:07:41;;;;;;;20.82;10.80;;;;;;;14.18;62.38;100842.48;1772191;79;21789;-52
2023/09/14 05:10:47;;;;;;;24.50;11.15;;;;;;;14.24;62.43;100837.63;1778536;78;21953;-49
2023/09/14 05:13:55;;;;;;;19.95;10.58;;;;;;;14.31;62.42;100841.86;1792023;78;21789;-49
2023/09/14 05:17:00;;;;;;;23.92;11.43;;;;;;;14.38;62.45;100842.28;1780095;77;21385;-48
2023/09/14 05:20:08;;;;;;;16.20;10.75;;;;;;;14.45;62.44;100835.50;1790557;77;21253;-51
2023/09/14 05:23:14;;;;;;;17.70;10.35;;;;;;;14.52;62.44;100833.20;1725413;79;21247;-49
2023/09/14 05:26:19;;;;;;;16.37;10.15;;;;;;;14.61;62.45;100829.80;1718831;80;21270;-50
2023/09/14 05:29:26;;;;;;;18.35;9.58;;;;;;;14.71;62.49;100835.89;1708198;81;21232;-52
2023/09/14 05:32:31;;;;;;;19.02;10.45;;;;;;;14.79;62.49;100838.00;1708658;80;21409;-52
2023/09/14 05:35:37;;;;;;;13.88;9.63;;;;;;;14.90;62.49;100842.19;1759660;78;21246;-52
2023/09/14 05:38:46;;;;;;;18.30;9.88;;;;;;;15.00;62.49;100835.31;1759311;79;21246;-53
2023/09/14 05:41:51;;;;;;;19.42;9.28;;;;;;;15.13;62.49;100832.40;1777787;78;21250;-53
2023/09/14 05:44:58;;;;;;;13.32;8.38;;;;;;;15.25;62.49;100827.56;1785879;79;21928;-52
2023/09/14 05:48:07;;;;;;;17.42;8.68;;;;;;;15.37;62.49;100827.36;1764978;80;21259;-51
2023/09/14 05:51:13;;;;;;;15.32;8.78;;;;;;;15.49;62.41;100823.05;1769393;79;21211;-52
2023/09/14 05:54:19;;;;;;;14.83;7.95;;;;;;;15.64;62.36;100833.52;1727814;80;21226;-51
2023/09/14 05:57:25;;;;;;;16.60;8.18;;;;;;;15.78;62.32;100824.81;1741621;80;21192;-50
2023/09/14 06:00:32;;;;;;;14.98;8.45;;;;;;;15.91;62.27;100818.90;1776530;79;21350;-52
2023/09/14 06:03:39;;;;;;;13.72;8.28;;;;;;;16.03;62.19;100806.23;1803834;79;21350;-52
2023/09/14 06:06:46;;;;;;;14.43;8.03;;;;;;;16.15;62.13;100806.55;1803507;78;21891;-52
2023/09/14 06:09:53;;;;;;;17.02;8.45;;;;;;;16.29;62.05;100805.58;1792913;78;21338;-52
2023/09/14 06:12:59;;;;;;;14.70;8.05;;;;;;;16.40;61.99;100810.02;1782043;79;21374;-50
2023/09/14 06:16:05;;;;;;;11.15;7.33;;;;;;;16.54;61.90;100819.81;1727550;79;21256;-52
2023/09/14 06:19:11;;;;;;;18.05;8.08;;;;;;;16.69;61.78;100809.46;1751033;78;21218;-52
2023/09/14 06:22:18;;;;;;;13.38;7.87;;;;;;;16.85;61.69;100814.13;1739084;82;21211;-52
2023/09/14 06:25:25;;;;;;;15.13;7.70;;;;;;;17.00;61.58;100816.20;1736050;79;21339;-50
2023/09/14 06:28:31;;;;;;;17.70;7.65;;;;;;;17.14;61.49;100821.27;1776004;79;21298;-51
2023/09/14 06:31:37;;;;;;;11.43;7.78;;;;;;;17.26;61.38;100825.99;1731414;81;21232;-51
2023/09/14 06:34:43;;;;;;;11.95;7.58;;;;;;;17.36;61.23;100826.98;1723692;80;21255;-51
2023/09/14 06:37:49;;;;;;;12.13;7.17;;;;;;;17.44;61.05;100828.17;1760153;79;21212;-53
2023/09/14 06:40:55;;;;;;;11.88;7.22;;;;;;;17.49;60.91;100825.11;1790705;79;21685;-52
2023/09/14 06:44:04;;;;;;;12.50;7.37;;;;;;;17.55;60.78;100828.42;1803792;79;21359;-52
2023/09/14 06:47:11;;;;;;;13.78;6.75;;;;;;;17.64;60.70;100821.64;1803586;79;21876;-52
2023/09/14 06:50:17;;;;;;;15.38;6.70;;;;;;;17.71;60.56;100820.27;1767830;80;21363;-52
2023/09/14 06:53:23;;;;;;;12.20;6.65;;;;;;;17.80;60.46;100814.83;1761427;81;21775;-52
2023/09/14 06:56:29;;;;;;;10.00;7.00;;;;;;;17.93;60.38;100819.00;1776448;79;21333;-52
2023/09/14 06:59:35;;;;;;;12.80;7.58;;;;;;;18.07;60.36;100826.25;1802809;79;21842;-54
2023/09/14 07:02:41;;;;;;;12.70;6.92;;;;;;;18.28;60.34;100825.16;1804011;79;21358;-54
2023/09/14 07:05:47;;;;;;;10.82;7.65;;;;;;;18.48;60.17;100825.48;1791765;79;21350;-52
2023/09/14 07:08:55;;;;;;;18.62;7.03;;;;;;;18.67;59.99;100825.97;1790015;79;21370;-50
2023/09/14 07:12:06;;;;;;;11.43;6.55;;;;;;;18.89;59.82;100832.08;1756126;77;21581;-52
2023/09/14 07:15:13;;;;;;;9.95;6.33;;;;;;;19.05;59.65;100825.52;1779824;78;21382;-53
2023/09/14 07:18:37;;;;;;;9.15;6.20;;;;;;;19.23;59.42;100816.47;1773074;77;21195;-52
2023/09/14 07:21:43;;;;;;;14.20;6.67;;;;;;;19.39;59.17;100831.80;1716488;81;21329;-53
2023/09/14 07:24:50;;;;;;;12.65;6.28;;;;;;;19.51;58.91;100821.66;1761488;79;21944;-52
2023/09/14 07:27:57;;;;;;;21.12;10.78;;;;;;;19.59;58.66;100831.13;1780326;79;21196;-51
2023/09/14 07:31:04;;;;;;;11.88;7.35;;;;;;;19.65;58.38;100831.09;1756055;78;21191;-53
2023/09/14 07:34:11;;;;;;;10.90;6.97;;;;;;;19.66;58.12;100831.95;1758299;80;21232;-51
2023/09/14 07:37:18;;;;;;;13.72;7.12;;;;;;;19.68;57.87;100827.86;1716009;80;21792;-51
2023/09/14 07:40:25;;;;;;;10.72;5.87;;;;;;;19.71;57.67;100827.97;1762940;78;21378;-53
2023/09/14 07:43:33;;;;;;;13.68;6.62;;;;;;;19.77;57.47;100829.84;1745056;79;21414;-51
2023/09/14 07:46:40;;;;;;;13.43;6.40;;;;;;;19.87;57.35;100835.77;1742489;80;21417;-51
2023/09/14 07:49:46;;;;;;;15.45;6.53;;;;;;;19.97;57.25;100824.44;1718937;80;21937;-54
2023/09/14 07:52:52;;;;;;;16.45;6.45;;;;;;;20.11;57.07;100819.61;1729505;80;21294;-54
2023/09/14 07:55:58;;;;;;;11.25;6.17;;;;;;;20.21;56.86;100829.20;1724753;80;21254;-54
2023/09/14 07:58:59;;;;;;;10.75;6.10;;;;;;;20.33;56.62;100816.77;1729554;81;21745;-53
2023/09/14 08:02:08;;;;;;;11.68;6.80;;;;;;;20.45;56.39;100823.30;1737137;79;21224;-55
2023/09/14 08:05:15;;;;;;;11.68;5.90;;;;;;;20.55;56.20;100814.72;1742126;80;21315;-55
2023/09/14 08:08:22;;;;;;;16.40;6.45;;;;;;;20.70;55.98;100812.43;1739665;80;21826;-52
2023/09/14 08:11:27;;;;;;;9.58;6.08;;;;;;;20.90;55.83;100810.79;1730182;81;21267;-54
2023/09/14 08:14:35;;;;;;;10.20;5.45;;;;;;;21.11;55.62;100808.09;1731198;81;21202;-52
2023/09/14 08:17:40;;;;;;;10.55;5.92;;;;;;;21.25;55.32;100806.30;1740044;80;21226;-54
2023/09/14 08:20:47;;;;;;;12.50;5.65;;;;;;;21.43;55.13;100805.41;1760729;78;21222;-53
2023/09/14 08:23:56;;;;;;;9.73;5.53;;;;;;;21.58;54.83;100800.27;1765916;77;21228;-56
2023/09/14 08:27:02;;;;;;;11.73;5.37;;;;;;;21.72;54.54;100793.41;1781821;80;21762;-55
2023/09/14 08:30:12;;;;;;;8.88;5.35;;;;;;;21.85;54.28;100792.67;1785283;79;21922;-50
2023/09/14 08:33:17;;;;;;;8.00;5.33;;;;;;;21.97;53.97;100787.13;1796029;79;21398;-51
2023/09/14 08:36:25;;;;;;;10.35;5.03;;;;;;;22.06;53.64;100782.34;1796540;79;21417;-49
2023/09/14 08:39:31;;;;;;;11.53;5.78;;;;;;;22.16;53.43;100777.56;1793584;79;21338;-55
2023/09/14 08:42:40;;;;;;;13.98;5.87;;;;;;;22.26;53.16;100775.57;1780438;79;21437;-53
2023/09/14 08:45:46;;;;;;;9.10;5.30;;;;;;;22.36;52.87;100778.61;1793621;79;21354;-55
2023/09/14 08:48:52;;;;;;;13.05;5.47;;;;;;;22.46;52.63;100765.73;1776637;79;21334;-55
2023/09/14 08:52:00;;;;;;;10.65;5.05;;;;;;;22.58;52.39;100768.55;1783452;79;21197;-54
2023/09/14 08:55:07;;;;;;;8.65;5.05;;;;;;;22.72;52.14;100766.63;1784843;79;21860;-54
2023/09/14 08:58:14;;;;;;;8.08;4.95;;;;;;;22.89;51.93;100777.89;1738860;82;21437;-55
2023/09/14 09:01:22;;;;;;;10.50;5.20;;;;;;;22.99;51.59;100761.36;1795263;79;21387;-55
2023/09/14 09:04:29;;;;;;;7.37;5.05;;;;;;;23.02;51.19;100765.05;1792591;79;21378;-55
2023/09/14 09:07:36;;;;;;;9.53;5.87;;;;;;;23.03;50.87;100763.95;1739539;81;21323;-55
2023/09/14 09:10:42;;;;;;;13.80;11.22;;;;;;;23.08;50.58;100758.47;1795650;79;21366;-54
2023/09/14 09:13:52;;;;;;;10.50;6.00;;;;;;;23.14;50.32;100751.87;1775643;81;21271;-54
2023/09/14 09:16:58;;;;;;;9.28;5.05;;;;;;;23.23;50.11;100764.38;1803116;79;21943;-54
2023/09/14 09:20:04;;;;;;;8.45;4.83;;;;;;;23.34;49.86;100750.94;1801244;79;21327;-53
2023/09/14 09:23:11;;;;;;;27.73;7.10;;;;;;;23.50;49.73;100755.15;1802380;79;21255;-53
2023/09/14 09:26:17;;;;;;;15.08;6.42;;;;;;;23.66;49.56;100756.27;1802078;79;21880;-54
2023/09/14 09:29:28;;;;;;;11.57;5.67;;;;;;;23.73;49.21;100748.58;1803770;79;21924;-54
2023/09/14 09:32:34;;;;;;;11.33;5.97;;;;;;;23.74;48.88;100750.27;1767449;79;21308;-53
2023/09/14 09:35:42;;;;;;;10.93;6.08;;;;;;;23.77;48.62;100755.35;1732772;81;21560;-52
2023/09/14 09:38:49;;;;;;;9.75;5.37;;;;;;;23.78;48.38;100748.68;1753312;79;21204;-53
2023/09/14 09:41:54;;;;;;;11.25;6.60;;;;;;;23.89;48.22;100758.08;1741256;80;21303;-54
2023/09/14 09:45:04;;;;;;;13.20;6.20;;;;;;;24.05;48.11;100748.87;1721561;79;21393;-52
2023/09/14 09:48:11;;;;;;;10.75;6.25;;;;;;;24.26;47.99;100751.73;1735090;81;21734;-53
2023/09/14 09:51:17;;;;;;;11.18;6.05;;;;;;;24.48;47.82;100747.60;1781152;79;21379;-53
2023/09/14 09:54:27;;;;;;;11.48;5.80;;;;;;;24.58;47.49;100749.98;1777486;80;21394;-52
2023/09/14 09:57:40;;;;;;;;;;;;;;;24.62;47.19;100753.12;1772768;78;21454;-53
2023/09/14 10:00:44;;;;;;;9.35;5.47;;;;;;;24.64;46.87;100748.94;1784004;79;20597;-57
2023/09/14 10:03:54;;;;;;;9.20;5.62;;;;;;;24.64;46.66;100750.34;1773436;79;21435;-54
2023/09/14 10:07:04;;;;;;;10.58;5.85;;;;;;;24.75;46.57;100747.18;1691069;81;21288;-53
2023/09/14 10:10:07;;;;;;;11.63;5.60;;;;;;;24.86;46.48;100740.03;1789598;80;21370;-53
2023/09/14 10:13:16;;;;;;;9.68;5.50;;;;;;;24.96;46.21;100733.70;1759912;79;21398;-54
2023/09/14 10:16:25;;;;;;;10.75;6.00;;;;;;;24.94;45.85;100728.95;1751912;79;21242;-53
2023/09/14 10:19:32;;;;;;;10.90;5.40;;;;;;;24.91;45.64;100731.70;1754986;78;21258;-53
2023/09/14 10:22:41;;;;;;;14.80;6.08;;;;;;;24.92;45.48;100725.55;1764017;79;21447;-53
2023/09/14 10:25:49;;;;;;;9.55;5.37;;;;;;;24.94;45.35;100726.14;1723922;80;21243;-53
2023/09/14 10:28:56;;;;;;;13.80;5.65;;;;;;;24.99;45.24;100729.84;1759257;80;21899;-53
2023/09/14 10:32:06;;;;;;;10.55;5.83;;;;;;;25.03;45.09;100716.16;1708824;81;21372;-49
2023/09/14 10:35:14;;;;;;;7.45;5.65;;;;;;;25.06;44.89;100715.63;1735028;82;21228;-53
2023/09/14 10:38:21;;;;;;;9.58;5.72;;;;;;;25.10;44.77;100723.82;1722015;80;21846;-55
2023/09/14 10:41:27;;;;;;;11.73;5.92;;;;;;;25.16;44.66;100726.11;1727348;80;21792;-53
2023/09/14 10:44:36;;;;;;;11.05;5.95;;;;;;;25.27;44.58;100730.72;1752310;79;21359;-53
2023/09/14 10:47:41;;;;;;;11.83;5.80;;;;;;;25.31;44.34;100716.48;1774354;79;21208;-54
2023/09/14 10:50:47;;;;;;;13.13;5.72;;;;;;;25.39;44.22;100723.02;1719906;79;21398;-53
2023/09/14 10:53:54;;;;;;;12.75;5.60;;;;;;;25.51;44.12;100716.72;1752502;79;21744;-52
2023/09/14 10:57:08;;;;;;;10.40;5.62;;;;;;;25.61;43.92;100710.64;1793816;79;21859;-53
2023/09/14 11:00:16;;;;;;;11.18;6.20;;;;;;;25.53;43.57;100712.52;1739984;80;21240;-54
2023/09/14 11:03:25;;;;;;;11.95;6.15;;;;;;;25.37;43.21;100702.84;1726445;81;21295;-55
2023/09/14 11:06:59;;;;;;;10.08;5.72;;;;;;;25.31;43.10;100706.09;1724073;79;21412;-55
2023/09/14 11:10:13;;;;;;;12.50;5.72;;;;;;;25.38;43.08;100705.92;1740404;81;21697;-53
2023/09/14 11:13:33;;;;;;;10.48;5.45;;;;;;;25.33;42.81;100699.68;1707081;80;21225;-56
2023/09/14 11:16:54;;;;;;;18.50;6.22;;;;;;;25.30;42.71;100697.41;1750774;79;21315;-54
2023/09/14 11:20:01;;;;;;;12.07;5.60;;;;;;;25.38;42.68;100694.16;1733362;80;21742;-54
2023/09/14 11:23:09;;;;;;;9.98;6.22;;;;;;;25.43;42.51;100682.14;1763918;79;21198;-55
2023/09/14 11:26:15;;;;;;;13.43;5.70;;;;;;;25.44;42.41;100681.88;1728615;80;21597;-56
2023/09/14 11:29:24;;;;;;;8.58;5.53;;;;;;;25.59;42.41;100683.98;1761800;78;21232;-54
2023/09/14 11:32:34;;;;;;;11.40;5.53;;;;;;;25.73;42.38;100674.86;1782493;79;21193;-55
2023/09/14 11:35:44;;;;;;;11.90;5.47;;;;;;;25.83;42.22;100676.91;1774225;79;21378;-55
2023/09/14 11:38:57;;;;;;;8.88;5.87;;;;;;;25.97;42.11;100672.52;1768224;79;21197;-54
2023/09/14 11:42:06;;;;;;;11.18;6.00;;;;;;;26.13;42.06;100663.95;1767043;77;21280;-53
2023/09/14 11:45:15;;;;;;;11.35;6.25;;;;;;;26.09;41.69;100661.41;1724651;80;21741;-53
2023/09/14 11:48:24;;;;;;;13.53;6.12;;;;;;;25.99;41.48;100663.28;1762168;79;21224;-55
2023/09/14 11:51:31;;;;;;;11.03;6.05;;;;;;;25.98;41.40;100661.57;1774644;79;21186;-54
2023/09/14 11:54:39;;;;;;;11.15;6.42;;;;;;;26.11;41.44;100652.17;1743593;79;21260;-54
2023/09/14 11:57:46;;;;;;;10.50;6.30;;;;;;;26.18;41.31;100654.16;1755540;79;21208;-55
2023/09/14 12:00:57;;;;;;;13.62;6.90;;;;;;;26.27;41.22;100651.70;1762308;79;21279;-54
2023/09/14 12:04:05;;;;;;;12.58;6.85;;;;;;;26.32;41.13;100647.52;1703029;80;21236;-56
2023/09/14 12:07:11;;;;;;;13.25;7.40;;;;;;;26.33;41.00;100642.18;1763570;78;21228;-56
2023/09/14 12:10:27;;;;;;;16.57;6.33;;;;;;;26.38;40.94;100636.59;1720909;79;21198;-55
2023/09/14 12:13:33;;;;;;;12.15;6.75;;;;;;;26.37;40.77;100630.13;1737218;81;22121;-54
2023/09/14 12:16:38;;;;;;;14.28;6.90;;;;;;;26.38;40.64;100621.16;1724957;81;21248;-57
2023/09/14 12:19:59;;;;;;;18.10;6.78;;;;;;;26.38;40.57;100629.58;1765306;77;21777;-55
2023/09/14 12:23:01;;;;;;;9.43;6.12;;;;;;;26.41;40.55;100628.48;1758656;78;21274;-56
2023/09/14 12:26:07;;;;;;;13.65;6.50;;;;;;;26.44;40.47;100623.72;1754516;79;21324;-55
2023/09/14 12:29:12;;;;;;;13.65;6.30;;;;;;;26.45;40.38;100621.18;1725070;80;21588;-56
2023/09/14 12:32:19;;;;;;;12.43;6.30;;;;;;;26.44;40.25;100623.72;1724539;82;21248;-55
2023/09/14 12:35:24;;;;;;;10.38;6.28;;;;;;;26.43;40.15;100623.99;1792353;78;21284;-56
2023/09/14 12:38:33;;;;;;;13.90;6.87;;;;;;;26.40;40.00;100618.92;1756655;79;21769;-54
2023/09/14 12:41:40;;;;;;;12.20;6.97;;;;;;;26.37;39.95;100617.48;1760598;79;21224;-55
2023/09/14 12:44:46;;;;;;;14.23;6.53;;;;;;;26.34;39.85;100619.45;1786577;79;21796;-53
2023/09/14 12:47:55;;;;;;;16.25;7.25;;;;;;;26.29;39.73;100615.78;1764580;78;21204;-54
2023/09/14 12:51:02;;;;;;;12.03;6.72;;;;;;;26.27;39.75;100606.78;1772433;79;21221;-55
2023/09/14 12:54:10;;;;;;;13.75;7.20;;;;;;;26.28;39.78;100613.53;1785918;79;21205;-60
2023/09/14 12:57:23;;;;;;;12.55;6.20;;;;;;;26.31;39.75;100611.57;1790120;79;21857;-56
2023/09/14 13:00:37;;;;;;;11.80;6.58;;;;;;;26.36;39.68;100614.95;1748847;80;21231;-55
2023/09/14 13:03:43;;;;;;;9.68;6.60;;;;;;;26.44;39.68;100611.08;1782188;79;21752;-56
2023/09/14 13:06:50;;;;;;;22.82;8.10;;;;;;;26.54;39.55;100619.25;1797597;78;21979;-56
2023/09/14 13:09:56;;;;;;;11.45;6.12;;;;;;;26.60;39.45;100620.95;1772910;79;21212;-54
2023/09/14 13:13:24;;;;;;;13.43;6.65;;;;;;;26.64;39.30;100608.06;1789386;79;21742;-55
2023/09/14 13:16:30;;;;;;;15.15;6.05;;;;;;;26.64;39.21;100606.11;1784805;79;22031;-57
2023/09/14 13:19:37;;;;;;;10.85;6.53;;;;;;;26.65;39.16;100603.61;1772242;81;21763;-56
2023/09/14 13:22:44;;;;;;;10.55;6.67;;;;;;;26.64;39.01;100596.83;1784551;79;21275;-56
2023/09/14 13:25:51;;;;;;;15.45;6.20;;;;;;;26.60;38.90;100602.70;1786211;79;21370;-56
2023/09/14 13:28:56;;;;;;;10.78;5.85;;;;;;;26.55;38.79;100598.46;1778436;79;21346;-56
2023/09/14 13:32:04;;;;;;;11.40;6.60;;;;;;;26.52;38.77;100590.59;1794451;78;21339;-55
2023/09/14 13:35:11;;;;;;;18.32;7.58;;;;;;;26.50;38.78;100593.67;1797103;79;21458;-59
2023/09/14 13:38:17;;;;;;;17.37;7.03;;;;;;;26.43;38.74;100584.67;1776032;79;21172;-55
2023/09/14 13:41:22;;;;;;;13.50;6.85;;;;;;;26.33;38.69;100588.83;1786334;79;21248;-57
2023/09/14 13:44:30;;;;;;;17.75;7.60;;;;;;;26.20;38.61;100578.95;1789755;79;21454;-54
2023/09/14 13:47:36;;;;;;;9.88;6.40;;;;;;;26.11;38.57;100579.75;1798682;78;22231;-57
2023/09/14 13:50:42;;;;;;;17.60;6.47;;;;;;;26.03;38.54;100576.91;1802623;79;21361;-57
2023/09/14 13:53:50;;;;;;;16.93;7.20;;;;;;;25.99;38.58;100570.68;1794074;79;21474;-56
2023/09/14 13:56:56;;;;;;;18.30;7.53;;;;;;;25.95;38.55;100566.72;1789506;79;21894;-55
2023/09/14 14:00:05;;;;;;;21.55;8.08;;;;;;;25.87;38.54;100570.03;1784523;79;21729;-54
2023/09/14 14:03:20;;;;;;;13.25;8.30;;;;;;;25.83;38.64;100566.09;1788758;79;21330;-55
2023/09/14 14:06:27;;;;;;;15.25;7.67;;;;;;;25.85;38.71;100563.84;1790153;79;21192;-56
2023/09/14 14:09:36;;;;;;;17.40;7.87;;;;;;;25.84;38.72;100566.37;1771490;79;21841;-56
2023/09/14 14:12:43;;;;;;;15.93;8.63;;;;;;;25.83;38.79;100561.88;1781371;79;21339;-55
2023/09/14 14:15:50;;;;;;;16.00;8.20;;;;;;;25.86;38.81;100565.55;1799923;79;21378;-56
2023/09/14 14:18:56;;;;;;;14.18;6.95;;;;;;;25.86;38.81;100558.53;1790225;79;21263;-56